sensor_id;sensor_type;location;lat;lon;timestamp;temperature;humidity
13808;DHT22;40769;51.512;5.494;2023-02-15T00:01:37;6.50;99.90
13808;DHT22;40769;51.512;5.494;2023-02-15T00:04:04;6.30;99.90
13808;DHT22;40769;51.512;5.494;2023-02-15T00:06:30;6.20;99.90
13808;DHT22;40769;51.512;5.494;2023-02-15T00:08:56;6.30;99.90
13808;DHT22;40769;51.512;5.494;2023-02-15T00:11:21;6.30;99.90
13808;DHT22;40769;51.512;5.494;2023-02-15T00:14:13;5.10;99.90
13808;DHT22;40769;51.512;5.494;2023-02-15T00:16:40;6.40;99.90
13808;DHT22;40769;51.512;5.494;2023-02-15T00:19:06;6.50;99.90
13808;DHT22;40769;51.512;5.494;2023-02-15T00:21:33;6.60;99.90
13808;DHT22;40769;51.512;5.494;2023-02-15T00:24:00;6.60;99.90
13808;DHT22;40769;51.512;5.494;2023-02-15T00:26:26;6.40;99.90
13808;DHT22;40769;51.512;5.494;2023-02-15T00:28:53;6.30;99.90
13808;DHT22;40769;51.512;5.494;2023-02-15T00:31:20;6.20;99.90
13808;DHT22;40769;51.512;5.494;2023-02-15T00:33:46;6.20;99.90
13808;DHT22;40769;51.512;5.494;2023-02-15T00:36:12;6.10;99.90
13808;DHT22;40769;51.512;5.494;2023-02-15T00:38:37;6.20;99.90
13808;DHT22;40769;51.512;5.494;2023-02-15T00:41:05;6.20;99.90
13808;DHT22;40769;51.512;5.494;2023-02-15T00:43:33;6.30;99.90
13808;DHT22;40769;51.512;5.494;2023-02-15T00:45:59;6.40;99.90
13808;DHT22;40769;51.512;5.494;2023-02-15T00:48:25;6.30;99.90
13808;DHT22;40769;51.512;5.494;2023-02-15T00:50:53;6.20;99.90
13808;DHT22;40769;51.512;5.494;2023-02-15T00:53:19;6.00;99.90
13808;DHT22;40769;51.512;5.494;2023-02-15T00:55:45;5.80;99.90
13808;DHT22;40769;51.512;5.494;2023-02-15T00:58:11;5.70;99.90
13808;DHT22;40769;51.512;5.494;2023-02-15T01:00:37;5.70;99.90
13808;DHT22;40769;51.512;5.494;2023-02-15T01:03:04;5.70;99.90
13808;DHT22;40769;51.512;5.494;2023-02-15T01:05:30;5.80;99.90
13808;DHT22;40769;51.512;5.494;2023-02-15T01:07:56;5.90;99.90
13808;DHT22;40769;51.512;5.494;2023-02-15T01:10:22;6.00;99.90
13808;DHT22;40769;51.512;5.494;2023-02-15T01:12:50;6.10;99.90
13808;DHT22;40769;51.512;5.494;2023-02-15T01:15:15;5.90;99.90
13808;DHT22;40769;51.512;5.494;2023-02-15T01:17:41;5.70;99.90
13808;DHT22;40769;51.512;5.494;2023-02-15T01:20:08;5.50;99.90
13808;DHT22;40769;51.512;5.494;2023-02-15T01:22:33;5.40;99.90
13808;DHT22;40769;51.512;5.494;2023-02-15T01:24:59;6.40;99.90
13808;DHT22;40769;51.512;5.494;2023-02-15T01:27:25;5.40;99.90
13808;DHT22;40769;51.512;5.494;2023-02-15T01:29:50;5.90;99.90
13808;DHT22;40769;51.512;5.494;2023-02-15T01:32:16;5.50;99.90
13808;DHT22;40769;51.512;5.494;2023-02-15T01:34:42;5.70;99.90
13808;DHT22;40769;51.512;5.494;2023-02-15T01:37:07;5.70;99.90
13808;DHT22;40769;51.512;5.494;2023-02-15T01:39:33;5.90;99.90
13808;DHT22;40769;51.512;5.494;2023-02-15T01:41:58;6.00;99.90
13808;DHT22;40769;51.512;5.494;2023-02-15T01:44:47;5.90;99.90
13808;DHT22;40769;51.512;5.494;2023-02-15T01:47:22;5.80;99.90
13808;DHT22;40769;51.512;5.494;2023-02-15T01:49:54;5.80;99.90
13808;DHT22;40769;51.512;5.494;2023-02-15T01:52:22;6.40;99.90
13808;DHT22;40769;51.512;5.494;2023-02-15T01:54:51;5.70;99.90
13808;DHT22;40769;51.512;5.494;2023-02-15T01:57:19;5.80;99.90
13808;DHT22;40769;51.512;5.494;2023-02-15T01:59:50;5.90;99.90
13808;DHT22;40769;51.512;5.494;2023-02-15T02:02:18;5.90;99.90
13808;DHT22;40769;51.512;5.494;2023-02-15T02:04:51;6.00;99.90
13808;DHT22;40769;51.512;5.494;2023-02-15T02:07:19;6.20;99.90
13808;DHT22;40769;51.512;5.494;2023-02-15T02:09:46;6.10;99.90
13808;DHT22;40769;51.512;5.494;2023-02-15T02:12:13;6.00;99.90
13808;DHT22;40769;51.512;5.494;2023-02-15T02:14:39;5.90;99.90
13808;DHT22;40769;51.512;5.494;2023-02-15T02:17:33;6.50;99.90
13808;DHT22;40769;51.512;5.494;2023-02-15T02:20:24;5.70;99.90
13808;DHT22;40769;51.512;5.494;2023-02-15T02:32:08;5.80;99.90
13808;DHT22;40769;51.512;5.494;2023-02-15T02:34:38;5.90;99.90
13808;DHT22;40769;51.512;5.494;2023-02-15T02:39:53;5.70;99.90
13808;DHT22;40769;51.512;5.494;2023-02-15T02:42:34;5.50;99.90
13808;DHT22;40769;51.512;5.494;2023-02-15T02:47:55;5.30;99.90
13808;DHT22;40769;51.512;5.494;2023-02-15T02:50:25;5.30;99.90
13808;DHT22;40769;51.512;5.494;2023-02-15T02:52:53;5.30;99.90
13808;DHT22;40769;51.512;5.494;2023-02-15T02:55:39;5.30;99.90
13808;DHT22;40769;51.512;5.494;2023-02-15T02:58:14;5.40;99.90
13808;DHT22;40769;51.512;5.494;2023-02-15T03:00:50;5.50;99.90
13808;DHT22;40769;51.512;5.494;2023-02-15T03:03:47;5.50;99.90
13808;DHT22;40769;51.512;5.494;2023-02-15T03:06:28;5.50;99.90
13808;DHT22;40769;51.512;5.494;2023-02-15T03:09:00;5.40;99.90
13808;DHT22;40769;51.512;5.494;2023-02-15T03:11:27;5.20;99.90
13808;DHT22;40769;51.512;5.494;2023-02-15T03:13:53;5.10;99.90
13808;DHT22;40769;51.512;5.494;2023-02-15T03:16:19;5.00;99.90
13808;DHT22;40769;51.512;5.494;2023-02-15T03:19:05;5.00;99.90
13808;DHT22;40769;51.512;5.494;2023-02-15T03:21:49;5.10;99.90
13808;DHT22;40769;51.512;5.494;2023-02-15T03:24:25;5.10;99.90
13808;DHT22;40769;51.512;5.494;2023-02-15T03:26:52;5.20;99.90
13808;DHT22;40769;51.512;5.494;2023-02-15T03:29:20;5.30;99.90
13808;DHT22;40769;51.512;5.494;2023-02-15T03:31:50;5.50;99.90
13808;DHT22;40769;51.512;5.494;2023-02-15T03:34:17;5.30;99.90
13808;DHT22;40769;51.512;5.494;2023-02-15T03:44:32;5.10;99.90
13808;DHT22;40769;51.512;5.494;2023-02-15T03:47:32;5.00;99.90
13808;DHT22;40769;51.512;5.494;2023-02-15T03:50:07;4.80;99.90
13808;DHT22;40769;51.512;5.494;2023-02-15T03:53:09;4.60;99.90
13808;DHT22;40769;51.512;5.494;2023-02-15T03:55:36;4.30;99.90
13808;DHT22;40769;51.512;5.494;2023-02-15T03:58:03;4.30;99.90
13808;DHT22;40769;51.512;5.494;2023-02-15T04:00:58;4.30;99.90
13808;DHT22;40769;51.512;5.494;2023-02-15T04:03:49;4.40;99.90
13808;DHT22;40769;51.512;5.494;2023-02-15T04:06:15;4.50;99.90
13808;DHT22;40769;51.512;5.494;2023-02-15T04:08:41;4.70;99.90
13808;DHT22;40769;51.512;5.494;2023-02-15T04:11:25;4.80;99.90
13808;DHT22;40769;51.512;5.494;2023-02-15T04:13:51;5.00;99.90
13808;DHT22;40769;51.512;5.494;2023-02-15T04:16:22;5.10;99.90
13808;DHT22;40769;51.512;5.494;2023-02-15T04:18:48;5.00;99.90
13808;DHT22;40769;51.512;5.494;2023-02-15T04:21:32;4.90;99.90
13808;DHT22;40769;51.512;5.494;2023-02-15T04:24:17;4.70;99.90
13808;DHT22;40769;51.512;5.494;2023-02-15T04:27:02;4.60;99.90
13808;DHT22;40769;51.512;5.494;2023-02-15T04:29:29;4.60;99.90
13808;DHT22;40769;51.512;5.494;2023-02-15T04:31:56;4.70;99.90
13808;DHT22;40769;51.512;5.494;2023-02-15T04:34:22;4.80;99.90
13808;DHT22;40769;51.512;5.494;2023-02-15T04:36:48;4.90;99.90
13808;DHT22;40769;51.512;5.494;2023-02-15T04:39:16;5.00;99.90
13808;DHT22;40769;51.512;5.494;2023-02-15T04:41:42;5.10;99.90
13808;DHT22;40769;51.512;5.494;2023-02-15T04:44:08;5.20;99.90
13808;DHT22;40769;51.512;5.494;2023-02-15T04:46:34;5.10;99.90
13808;DHT22;40769;51.512;5.494;2023-02-15T04:49:00;5.00;99.90
13808;DHT22;40769;51.512;5.494;2023-02-15T04:51:25;4.80;99.90
13808;DHT22;40769;51.512;5.494;2023-02-15T04:53:51;4.70;99.90
13808;DHT22;40769;51.512;5.494;2023-02-15T04:56:18;4.60;99.90
13808;DHT22;40769;51.512;5.494;2023-02-15T04:58:44;4.60;99.90
13808;DHT22;40769;51.512;5.494;2023-02-15T05:01:10;4.70;99.90
13808;DHT22;40769;51.512;5.494;2023-02-15T05:03:36;4.80;99.90
13808;DHT22;40769;51.512;5.494;2023-02-15T05:06:02;4.80;99.90
13808;DHT22;40769;51.512;5.494;2023-02-15T05:08:28;4.90;99.90
13808;DHT22;40769;51.512;5.494;2023-02-15T05:10:54;5.70;99.90
13808;DHT22;40769;51.512;5.494;2023-02-15T05:13:20;5.00;99.90
13808;DHT22;40769;51.512;5.494;2023-02-15T05:15:53;6.00;99.90
13808;DHT22;40769;51.512;5.494;2023-02-15T05:18:20;4.60;99.90
13808;DHT22;40769;51.512;5.494;2023-02-15T05:20:47;4.40;99.90
13808;DHT22;40769;51.512;5.494;2023-02-15T05:23:13;4.30;99.90
13808;DHT22;40769;51.512;5.494;2023-02-15T05:25:39;4.30;99.90
13808;DHT22;40769;51.512;5.494;2023-02-15T05:28:26;4.30;99.90
13808;DHT22;40769;51.512;5.494;2023-02-15T05:31:13;5.00;99.90
13808;DHT22;40769;51.512;5.494;2023-02-15T05:33:39;5.30;99.90
13808;DHT22;40769;51.512;5.494;2023-02-15T05:36:06;4.70;99.90
13808;DHT22;40769;51.512;5.494;2023-02-15T05:38:33;4.80;99.90
13808;DHT22;40769;51.512;5.494;2023-02-15T05:40:59;4.80;99.90
13808;DHT22;40769;51.512;5.494;2023-02-15T05:43:25;4.70;99.90
13808;DHT22;40769;51.512;5.494;2023-02-15T05:45:53;4.60;99.90
13808;DHT22;40769;51.512;5.494;2023-02-15T05:48:21;4.60;99.90
13808;DHT22;40769;51.512;5.494;2023-02-15T05:50:57;4.50;99.90
13808;DHT22;40769;51.512;5.494;2023-02-15T05:53:23;4.50;99.90
13808;DHT22;40769;51.512;5.494;2023-02-15T05:55:48;4.50;99.90
13808;DHT22;40769;51.512;5.494;2023-02-15T05:58:14;4.60;99.90
13808;DHT22;40769;51.512;5.494;2023-02-15T06:00:39;5.50;99.90
13808;DHT22;40769;51.512;5.494;2023-02-15T06:03:05;4.70;99.90
13808;DHT22;40769;51.512;5.494;2023-02-15T06:05:31;4.80;99.90
13808;DHT22;40769;51.512;5.494;2023-02-15T06:07:56;4.90;99.90
13808;DHT22;40769;51.512;5.494;2023-02-15T06:10:22;4.90;99.90
13808;DHT22;40769;51.512;5.494;2023-02-15T06:12:47;5.00;99.90
13808;DHT22;40769;51.512;5.494;2023-02-15T06:15:13;5.00;99.90
13808;DHT22;40769;51.512;5.494;2023-02-15T06:17:41;5.10;99.90
13808;DHT22;40769;51.512;5.494;2023-02-15T06:20:08;5.00;99.90
13808;DHT22;40769;51.512;5.494;2023-02-15T06:22:34;5.10;99.90
13808;DHT22;40769;51.512;5.494;2023-02-15T06:24:59;5.10;99.90
13808;DHT22;40769;51.512;5.494;2023-02-15T06:27:25;6.10;99.90
13808;DHT22;40769;51.512;5.494;2023-02-15T06:29:51;5.10;99.90
13808;DHT22;40769;51.512;5.494;2023-02-15T06:32:16;5.00;99.90
13808;DHT22;40769;51.512;5.494;2023-02-15T06:34:42;4.70;99.90
13808;DHT22;40769;51.512;5.494;2023-02-15T06:37:08;4.50;99.90
13808;DHT22;40769;51.512;5.494;2023-02-15T06:39:34;4.30;99.90
13808;DHT22;40769;51.512;5.494;2023-02-15T06:41:59;4.40;99.90
13808;DHT22;40769;51.512;5.494;2023-02-15T06:44:25;4.20;99.90
13808;DHT22;40769;51.512;5.494;2023-02-15T06:46:51;4.30;99.90
13808;DHT22;40769;51.512;5.494;2023-02-15T06:49:17;4.40;99.90
13808;DHT22;40769;51.512;5.494;2023-02-15T06:51:42;4.60;99.90
13808;DHT22;40769;51.512;5.494;2023-02-15T06:54:08;4.70;99.90
13808;DHT22;40769;51.512;5.494;2023-02-15T06:56:34;4.80;99.90
13808;DHT22;40769;51.512;5.494;2023-02-15T06:58:59;5.40;99.90
13808;DHT22;40769;51.512;5.494;2023-02-15T07:01:25;4.80;99.90
13808;DHT22;40769;51.512;5.494;2023-02-15T07:03:50;4.60;99.90
13808;DHT22;40769;51.512;5.494;2023-02-15T07:06:16;4.80;99.90
13808;DHT22;40769;51.512;5.494;2023-02-15T07:08:42;4.40;99.90
13808;DHT22;40769;51.512;5.494;2023-02-15T07:11:07;4.50;99.90
13808;DHT22;40769;51.512;5.494;2023-02-15T07:13:52;4.50;99.90
13808;DHT22;40769;51.512;5.494;2023-02-15T07:16:18;4.60;99.90
13808;DHT22;40769;51.512;5.494;2023-02-15T07:18:44;4.70;99.90
13808;DHT22;40769;51.512;5.494;2023-02-15T07:21:10;5.80;99.90
13808;DHT22;40769;51.512;5.494;2023-02-15T07:23:38;4.80;99.90
13808;DHT22;40769;51.512;5.494;2023-02-15T07:26:05;4.90;99.90
13808;DHT22;40769;51.512;5.494;2023-02-15T07:28:31;4.70;99.90
13808;DHT22;40769;51.512;5.494;2023-02-15T07:30:57;4.70;99.90
13808;DHT22;40769;51.512;5.494;2023-02-15T07:33:23;4.70;99.90
13808;DHT22;40769;51.512;5.494;2023-02-15T07:35:54;4.90;99.90
13808;DHT22;40769;51.512;5.494;2023-02-15T07:38:20;5.10;99.90
13808;DHT22;40769;51.512;5.494;2023-02-15T07:40:46;5.30;99.90
13808;DHT22;40769;51.512;5.494;2023-02-15T07:43:12;5.50;99.90
13808;DHT22;40769;51.512;5.494;2023-02-15T07:45:38;5.60;99.90
13808;DHT22;40769;51.512;5.494;2023-02-15T07:48:05;5.80;99.90
13808;DHT22;40769;51.512;5.494;2023-02-15T07:50:31;5.90;99.90
13808;DHT22;40769;51.512;5.494;2023-02-15T07:52:57;6.10;99.90
13808;DHT22;40769;51.512;5.494;2023-02-15T07:55:23;6.30;99.90
13808;DHT22;40769;51.512;5.494;2023-02-15T07:57:50;6.40;99.90
13808;DHT22;40769;51.512;5.494;2023-02-15T08:00:18;6.40;99.90
13808;DHT22;40769;51.512;5.494;2023-02-15T08:02:51;6.40;99.90
13808;DHT22;40769;51.512;5.494;2023-02-15T08:05:35;6.40;99.90
13808;DHT22;40769;51.512;5.494;2023-02-15T08:08:01;6.40;99.90
13808;DHT22;40769;51.512;5.494;2023-02-15T08:10:27;6.50;99.90
13808;DHT22;40769;51.512;5.494;2023-02-15T08:13:12;6.60;99.90
13808;DHT22;40769;51.512;5.494;2023-02-15T08:15:38;6.70;99.90
13808;DHT22;40769;51.512;5.494;2023-02-15T08:18:03;6.90;99.90
13808;DHT22;40769;51.512;5.494;2023-02-15T08:20:29;6.80;99.90
13808;DHT22;40769;51.512;5.494;2023-02-15T08:22:55;7.00;99.90
13808;DHT22;40769;51.512;5.494;2023-02-15T08:25:21;7.20;99.90
13808;DHT22;40769;51.512;5.494;2023-02-15T08:27:47;7.40;99.90
13808;DHT22;40769;51.512;5.494;2023-02-15T08:30:13;7.40;99.90
13808;DHT22;40769;51.512;5.494;2023-02-15T08:32:39;7.50;99.90
13808;DHT22;40769;51.512;5.494;2023-02-15T08:35:05;7.50;99.90
13808;DHT22;40769;51.512;5.494;2023-02-15T08:37:31;7.60;99.90
13808;DHT22;40769;51.512;5.494;2023-02-15T08:39:57;7.80;99.90
13808;DHT22;40769;51.512;5.494;2023-02-15T08:42:23;8.50;99.90
13808;DHT22;40769;51.512;5.494;2023-02-15T08:44:48;8.20;99.90
13808;DHT22;40769;51.512;5.494;2023-02-15T08:47:17;8.40;99.90
13808;DHT22;40769;51.512;5.494;2023-02-15T08:49:42;8.50;99.90
13808;DHT22;40769;51.512;5.494;2023-02-15T08:52:08;8.60;99.90
13808;DHT22;40769;51.512;5.494;2023-02-15T08:54:33;8.80;99.90
13808;DHT22;40769;51.512;5.494;2023-02-15T08:56:59;9.00;99.90
13808;DHT22;40769;51.512;5.494;2023-02-15T08:59:27;9.10;99.90
13808;DHT22;40769;51.512;5.494;2023-02-15T09:01:53;9.20;99.90
13808;DHT22;40769;51.512;5.494;2023-02-15T09:04:19;9.30;99.90
13808;DHT22;40769;51.512;5.494;2023-02-15T09:06:47;9.40;99.90
13808;DHT22;40769;51.512;5.494;2023-02-15T09:09:13;9.50;99.90
13808;DHT22;40769;51.512;5.494;2023-02-15T09:11:41;10.50;99.90
13808;DHT22;40769;51.512;5.494;2023-02-15T09:14:27;9.60;99.90
13808;DHT22;40769;51.512;5.494;2023-02-15T09:16:55;9.70;99.90
13808;DHT22;40769;51.512;5.494;2023-02-15T09:19:24;9.70;99.90
13808;DHT22;40769;51.512;5.494;2023-02-15T09:21:50;9.80;99.90
13808;DHT22;40769;51.512;5.494;2023-02-15T09:24:17;10.30;99.90
13808;DHT22;40769;51.512;5.494;2023-02-15T09:26:45;10.10;99.90
13808;DHT22;40769;51.512;5.494;2023-02-15T09:29:12;10.30;99.90
13808;DHT22;40769;51.512;5.494;2023-02-15T09:31:40;10.40;99.90
13808;DHT22;40769;51.512;5.494;2023-02-15T09:34:11;10.50;99.90
13808;DHT22;40769;51.512;5.494;2023-02-15T09:36:38;10.60;99.90
13808;DHT22;40769;51.512;5.494;2023-02-15T09:42:39;10.90;99.90
13808;DHT22;40769;51.512;5.494;2023-02-15T09:48:01;11.30;99.90
13808;DHT22;40769;51.512;5.494;2023-02-15T09:51:01;11.40;99.90
13808;DHT22;40769;51.512;5.494;2023-02-15T09:56:42;11.70;99.90
13808;DHT22;40769;51.512;5.494;2023-02-15T10:02:38;12.30;99.90
13808;DHT22;40769;51.512;5.494;2023-02-15T10:05:24;12.50;99.90
13808;DHT22;40769;51.512;5.494;2023-02-15T10:11:02;13.00;99.90
13808;DHT22;40769;51.512;5.494;2023-02-15T10:19:17;13.60;99.90
13808;DHT22;40769;51.512;5.494;2023-02-15T10:24:44;13.90;99.90
13808;DHT22;40769;51.512;5.494;2023-02-15T10:27:21;14.20;99.90
13808;DHT22;40769;51.512;5.494;2023-02-15T10:32:40;14.50;99.90
13808;DHT22;40769;51.512;5.494;2023-02-15T10:35:24;14.60;99.90
13808;DHT22;40769;51.512;5.494;2023-02-15T10:40:55;14.80;99.90
13808;DHT22;40769;51.512;5.494;2023-02-15T10:55:27;15.30;99.90
13808;DHT22;40769;51.512;5.494;2023-02-15T11:00:51;15.50;99.90
13808;DHT22;40769;51.512;5.494;2023-02-15T11:06:18;15.80;99.90
13808;DHT22;40769;51.512;5.494;2023-02-15T11:08:47;15.90;99.90
13808;DHT22;40769;51.512;5.494;2023-02-15T11:13:51;17.30;99.90
13808;DHT22;40769;51.512;5.494;2023-02-15T11:16:23;16.20;99.90
13808;DHT22;40769;51.512;5.494;2023-02-15T11:21:31;16.40;99.90
13808;DHT22;40769;51.512;5.494;2023-02-15T11:24:27;16.50;99.90
13808;DHT22;40769;51.512;5.494;2023-02-15T11:27:00;16.60;99.90
13808;DHT22;40769;51.512;5.494;2023-02-15T11:29:31;16.70;99.90
13808;DHT22;40769;51.512;5.494;2023-02-15T11:32:11;16.70;99.90
13808;DHT22;40769;51.512;5.494;2023-02-15T11:34:45;16.80;99.90
13808;DHT22;40769;51.512;5.494;2023-02-15T11:37:18;16.80;99.90
13808;DHT22;40769;51.512;5.494;2023-02-15T11:39:45;16.80;99.90
13808;DHT22;40769;51.512;5.494;2023-02-15T11:42:20;16.80;99.90
13808;DHT22;40769;51.512;5.494;2023-02-15T11:45:14;16.90;99.90
13808;DHT22;40769;51.512;5.494;2023-02-15T11:47:41;16.90;99.90
13808;DHT22;40769;51.512;5.494;2023-02-15T11:50:14;16.90;99.90
13808;DHT22;40769;51.512;5.494;2023-02-15T11:52:41;16.90;99.90
13808;DHT22;40769;51.512;5.494;2023-02-15T11:55:14;16.80;99.90
13808;DHT22;40769;51.512;5.494;2023-02-15T11:57:45;16.80;99.90
13808;DHT22;40769;51.512;5.494;2023-02-15T12:03:15;16.90;99.90
13808;DHT22;40769;51.512;5.494;2023-02-15T12:05:45;16.90;99.90
13808;DHT22;40769;51.512;5.494;2023-02-15T12:08:16;16.90;99.90
13808;DHT22;40769;51.512;5.494;2023-02-15T12:13:31;17.00;99.90
13808;DHT22;40769;51.512;5.494;2023-02-15T12:15:59;17.10;99.90
13808;DHT22;40769;51.512;5.494;2023-02-15T12:18:37;17.10;99.90
13808;DHT22;40769;51.512;5.494;2023-02-15T12:21:15;17.60;99.90
13808;DHT22;40769;51.512;5.494;2023-02-15T12:23:51;17.20;99.90
13808;DHT22;40769;51.512;5.494;2023-02-15T12:26:29;17.20;99.90
13808;DHT22;40769;51.512;5.494;2023-02-15T12:29:00;17.20;99.90
13808;DHT22;40769;51.512;5.494;2023-02-15T12:31:39;17.20;99.90
13808;DHT22;40769;51.512;5.494;2023-02-15T12:34:25;17.20;99.90
13808;DHT22;40769;51.512;5.494;2023-02-15T12:36:53;17.30;99.90
13808;DHT22;40769;51.512;5.494;2023-02-15T12:39:25;17.30;99.90
13808;DHT22;40769;51.512;5.494;2023-02-15T12:44:29;17.40;99.90
13808;DHT22;40769;51.512;5.494;2023-02-15T12:49:40;17.50;99.90
13808;DHT22;40769;51.512;5.494;2023-02-15T12:52:23;17.60;99.90
13808;DHT22;40769;51.512;5.494;2023-02-15T12:54:49;17.70;99.90
13808;DHT22;40769;51.512;5.494;2023-02-15T12:57:30;17.70;99.90
13808;DHT22;40769;51.512;5.494;2023-02-15T13:00:28;17.80;99.90
13808;DHT22;40769;51.512;5.494;2023-02-15T13:02:55;17.90;99.90
13808;DHT22;40769;51.512;5.494;2023-02-15T13:05:29;18.00;99.90
13808;DHT22;40769;51.512;5.494;2023-02-15T13:07:58;18.00;99.90
13808;DHT22;40769;51.512;5.494;2023-02-15T13:10:29;18.10;99.90
13808;DHT22;40769;51.512;5.494;2023-02-15T13:12:56;18.20;99.90
13808;DHT22;40769;51.512;5.494;2023-02-15T13:15:34;18.20;99.90
13808;DHT22;40769;51.512;5.494;2023-02-15T13:18:01;18.30;99.90
13808;DHT22;40769;51.512;5.494;2023-02-15T13:20:28;18.40;99.90
13808;DHT22;40769;51.512;5.494;2023-02-15T13:23:04;18.40;99.90
13808;DHT22;40769;51.512;5.494;2023-02-15T13:25:44;18.50;99.90
13808;DHT22;40769;51.512;5.494;2023-02-15T13:28:14;18.90;99.90
13808;DHT22;40769;51.512;5.494;2023-02-15T13:30:46;18.60;99.90
13808;DHT22;40769;51.512;5.494;2023-02-15T13:33:23;18.60;99.90
13808;DHT22;40769;51.512;5.494;2023-02-15T13:35:57;18.60;99.90
13808;DHT22;40769;51.512;5.494;2023-02-15T13:38:53;18.60;99.90
13808;DHT22;40769;51.512;5.494;2023-02-15T13:41:20;18.60;99.90
13808;DHT22;40769;51.512;5.494;2023-02-15T13:44:18;18.60;99.90
13808;DHT22;40769;51.512;5.494;2023-02-15T13:52:23;18.50;99.90
13808;DHT22;40769;51.512;5.494;2023-02-15T13:55:21;18.50;99.90
13808;DHT22;40769;51.512;5.494;2023-02-15T14:01:27;18.50;99.90
13808;DHT22;40769;51.512;5.494;2023-02-15T14:04:10;18.40;99.90
13808;DHT22;40769;51.512;5.494;2023-02-15T14:07:04;18.40;99.90
13808;DHT22;40769;51.512;5.494;2023-02-15T14:26:09;18.60;99.90
13808;DHT22;40769;51.512;5.494;2023-02-15T14:31:36;18.60;99.90
13808;DHT22;40769;51.512;5.494;2023-02-15T14:34:03;18.50;99.90
13808;DHT22;40769;51.512;5.494;2023-02-15T14:36:30;18.70;99.90
13808;DHT22;40769;51.512;5.494;2023-02-15T14:39:11;18.40;99.90
13808;DHT22;40769;51.512;5.494;2023-02-15T14:42:07;18.30;99.90
13808;DHT22;40769;51.512;5.494;2023-02-15T14:44:43;18.20;99.90
13808;DHT22;40769;51.512;5.494;2023-02-15T14:47:22;18.10;99.90
13808;DHT22;40769;51.512;5.494;2023-02-15T14:49:50;18.00;99.90
13808;DHT22;40769;51.512;5.494;2023-02-15T14:52:15;18.00;99.90
13808;DHT22;40769;51.512;5.494;2023-02-15T15:02:18;17.70;99.90
13808;DHT22;40769;51.512;5.494;2023-02-15T15:05:46;17.70;99.90
13808;DHT22;40769;51.512;5.494;2023-02-15T15:07:53;17.70;99.90
13808;DHT22;40769;51.512;5.494;2023-02-15T15:25:50;17.30;99.90
13808;DHT22;40769;51.512;5.494;2023-02-15T15:31:38;17.10;99.90
13808;DHT22;40769;51.512;5.494;2023-02-15T15:50:18;16.60;99.90
13808;DHT22;40769;51.512;5.494;2023-02-15T15:52:48;17.20;99.90
13808;DHT22;40769;51.512;5.494;2023-02-15T15:55:17;16.50;99.90
13808;DHT22;40769;51.512;5.494;2023-02-15T15:57:45;16.40;99.90
13808;DHT22;40769;51.512;5.494;2023-02-15T16:02:53;16.30;99.90
13808;DHT22;40769;51.512;5.494;2023-02-15T16:05:19;16.20;99.90
13808;DHT22;40769;51.512;5.494;2023-02-15T16:07:45;16.10;99.90
13808;DHT22;40769;51.512;5.494;2023-02-15T16:10:28;16.10;99.90
13808;DHT22;40769;51.512;5.494;2023-02-15T16:12:57;16.00;99.90
13808;DHT22;40769;51.512;5.494;2023-02-15T16:15:26;16.80;99.90
13808;DHT22;40769;51.512;5.494;2023-02-15T16:17:57;16.70;99.90
13808;DHT22;40769;51.512;5.494;2023-02-15T16:20:31;16.90;99.90
13808;DHT22;40769;51.512;5.494;2023-02-15T16:28:24;15.60;99.90
13808;DHT22;40769;51.512;5.494;2023-02-15T16:31:13;16.60;99.90
13808;DHT22;40769;51.512;5.494;2023-02-15T16:33:40;15.60;99.90
13808;DHT22;40769;51.512;5.494;2023-02-15T16:36:11;15.50;99.90
13808;DHT22;40769;51.512;5.494;2023-02-15T16:41:26;15.70;99.90
13808;DHT22;40769;51.512;5.494;2023-02-15T16:43:54;15.30;99.90
13808;DHT22;40769;51.512;5.494;2023-02-15T16:46:39;15.20;99.90
13808;DHT22;40769;51.512;5.494;2023-02-15T16:49:18;15.20;99.90
13808;DHT22;40769;51.512;5.494;2023-02-15T16:52:00;15.10;99.90
13808;DHT22;40769;51.512;5.494;2023-02-15T16:54:27;15.00;99.90
13808;DHT22;40769;51.512;5.494;2023-02-15T16:56:54;15.90;99.90
13808;DHT22;40769;51.512;5.494;2023-02-15T17:01:59;14.90;99.90
13808;DHT22;40769;51.512;5.494;2023-02-15T17:04:29;14.80;99.90
13808;DHT22;40769;51.512;5.494;2023-02-15T17:07:14;14.70;99.90
13808;DHT22;40769;51.512;5.494;2023-02-15T17:09:54;14.70;99.90
13808;DHT22;40769;51.512;5.494;2023-02-15T17:12:46;15.10;99.90
13808;DHT22;40769;51.512;5.494;2023-02-15T17:15:36;14.60;99.90
13808;DHT22;40769;51.512;5.494;2023-02-15T17:20:28;14.70;99.90
13808;DHT22;40769;51.512;5.494;2023-02-15T17:22:54;14.40;99.90
13808;DHT22;40769;51.512;5.494;2023-02-15T17:25:26;14.40;99.90
13808;DHT22;40769;51.512;5.494;2023-02-15T17:27:55;15.70;99.90
13808;DHT22;40769;51.512;5.494;2023-02-15T17:30:30;14.30;99.90
13808;DHT22;40769;51.512;5.494;2023-02-15T17:33:01;14.20;99.90
13808;DHT22;40769;51.512;5.494;2023-02-15T17:35:30;14.30;99.90
13808;DHT22;40769;51.512;5.494;2023-02-15T17:38:18;14.20;99.90
13808;DHT22;40769;51.512;5.494;2023-02-15T17:40:43;14.10;99.90
13808;DHT22;40769;51.512;5.494;2023-02-15T17:43:09;14.30;99.90
13808;DHT22;40769;51.512;5.494;2023-02-15T17:45:53;14.00;99.90
13808;DHT22;40769;51.512;5.494;2023-02-15T17:48:40;14.60;99.90
13808;DHT22;40769;51.512;5.494;2023-02-15T17:51:09;13.90;99.90
13808;DHT22;40769;51.512;5.494;2023-02-15T17:53:37;13.90;99.90
13808;DHT22;40769;51.512;5.494;2023-02-15T17:56:03;13.90;99.90
13808;DHT22;40769;51.512;5.494;2023-02-15T17:58:35;13.80;99.90
13808;DHT22;40769;51.512;5.494;2023-02-15T18:01:06;13.70;99.90
13808;DHT22;40769;51.512;5.494;2023-02-15T18:03:52;13.70;99.90
13808;DHT22;40769;51.512;5.494;2023-02-15T18:06:41;13.70;99.90
13808;DHT22;40769;51.512;5.494;2023-02-15T18:09:25;14.90;99.90
13808;DHT22;40769;51.512;5.494;2023-02-15T18:12:22;13.50;99.90
13808;DHT22;40769;51.512;5.494;2023-02-15T18:14:49;13.30;99.90
13808;DHT22;40769;51.512;5.494;2023-02-15T18:17:16;14.20;99.90
13808;DHT22;40769;51.512;5.494;2023-02-15T18:19:43;12.80;99.90
13808;DHT22;40769;51.512;5.494;2023-02-15T18:22:11;12.50;99.90
13808;DHT22;40769;51.512;5.494;2023-02-15T18:24:37;12.40;99.90
13808;DHT22;40769;51.512;5.494;2023-02-15T18:27:04;12.30;99.90
13808;DHT22;40769;51.512;5.494;2023-02-15T18:29:30;12.30;99.90
13808;DHT22;40769;51.512;5.494;2023-02-15T18:31:56;12.30;99.90
13808;DHT22;40769;51.512;5.494;2023-02-15T18:34:31;13.20;99.90
13808;DHT22;40769;51.512;5.494;2023-02-15T18:36:58;12.40;99.90
13808;DHT22;40769;51.512;5.494;2023-02-15T18:42:22;12.50;99.90
13808;DHT22;40769;51.512;5.494;2023-02-15T18:44:49;13.10;99.90
13808;DHT22;40769;51.512;5.494;2023-02-15T18:47:15;12.50;99.90
13808;DHT22;40769;51.512;5.494;2023-02-15T18:49:40;12.60;99.90
13808;DHT22;40769;51.512;5.494;2023-02-15T18:52:14;12.60;99.90
13808;DHT22;40769;51.512;5.494;2023-02-15T18:54:40;12.40;99.90
13808;DHT22;40769;51.512;5.494;2023-02-15T18:57:10;12.20;99.90
13808;DHT22;40769;51.512;5.494;2023-02-15T18:59:37;12.10;99.90
13808;DHT22;40769;51.512;5.494;2023-02-15T19:02:03;12.90;99.90